createdAt,value
2018-04-15T00:01:53.552Z,24.83
2018-04-15T00:04:21.123Z,17.43
2018-04-15T00:06:48.729Z,19.30
2018-04-15T00:09:16.320Z,19.33
2018-04-15T00:11:43.849Z,19.87
2018-04-15T00:14:12.160Z,18.23
2018-04-15T00:16:39.683Z,22.10
2018-04-15T00:19:07.713Z,19.33
2018-04-15T00:21:35.249Z,17.27
2018-04-15T00:24:03.209Z,22.67
2018-04-15T00:26:30.761Z,20.30
2018-04-15T00:28:58.594Z,20.93
2018-04-15T00:31:26.185Z,19.00
2018-04-15T00:33:53.754Z,20.40
2018-04-15T00:36:21.307Z,18.30
2018-04-15T00:38:48.861Z,20.93
2018-04-15T00:41:16.424Z,20.43
2018-04-15T00:43:43.976Z,21.13
2018-04-15T00:46:11.545Z,20.73
2018-04-15T00:48:39.091Z,19.30
2018-04-15T00:51:06.653Z,20.73
2018-04-15T00:53:45.843Z,19.23
2018-04-15T00:56:13.718Z,22.27
2018-04-15T00:58:41.267Z,18.93
2018-04-15T01:01:09.278Z,25.30
2018-04-15T01:03:36.868Z,20.73
2018-04-15T01:06:04.441Z,22.73
2018-04-15T01:08:32.004Z,23.83
2018-04-15T01:10:59.547Z,23.27
2018-04-15T01:13:27.115Z,23.03
2018-04-15T01:15:54.651Z,22.57
2018-04-15T01:18:22.228Z,24.77
2018-04-15T01:20:49.794Z,25.07
2018-04-15T01:23:17.347Z,24.17
2018-04-15T01:25:44.899Z,23.93
2018-04-15T01:28:12.465Z,25.03
2018-04-15T01:30:39.987Z,23.80
2018-04-15T01:33:07.575Z,23.67
2018-04-15T01:35:35.122Z,26.30
2018-04-15T01:38:02.716Z,25.70
2018-04-15T01:40:30.260Z,29.70
2018-04-15T01:42:57.835Z,26.80
2018-04-15T01:45:25.364Z,30.50
2018-04-15T01:47:52.996Z,25.23
2018-04-15T01:50:20.531Z,24.80
2018-04-15T01:52:48.647Z,27.10
2018-04-15T01:55:16.209Z,26.13
2018-04-15T01:57:43.773Z,25.23
2018-04-15T02:00:11.325Z,24.90
2018-04-15T02:02:39.472Z,28.83
2018-04-15T02:05:07.009Z,28.70
2018-04-15T02:07:34.910Z,25.40
2018-04-15T02:10:02.510Z,21.33
2018-04-15T02:12:30.358Z,27.23
2018-04-15T02:14:57.933Z,21.07
2018-04-15T02:17:25.515Z,27.37
2018-04-15T02:19:53.104Z,23.80
2018-04-15T02:22:20.677Z,23.33
2018-04-15T02:24:48.235Z,23.10
2018-04-15T02:27:15.791Z,19.80
2018-04-15T02:29:43.381Z,21.57
2018-04-15T02:32:10.962Z,23.10
2018-04-15T02:34:38.562Z,22.83
2018-04-15T02:37:06.105Z,19.30
2018-04-15T02:39:33.688Z,21.90
2018-04-15T02:42:01.226Z,17.57
2018-04-15T02:44:28.800Z,21.20
2018-04-15T02:46:56.376Z,22.23
2018-04-15T02:49:24.491Z,21.20
2018-04-15T02:51:52.049Z,23.93
2018-04-15T02:54:19.652Z,24.00
2018-04-15T02:56:47.203Z,23.23
2018-04-15T02:59:15.311Z,24.47
2018-04-15T03:01:42.843Z,24.20
2018-04-15T03:04:10.906Z,24.37
2018-04-15T03:06:38.534Z,25.73
2018-04-15T03:09:06.319Z,30.97
2018-04-15T03:11:34.067Z,24.40
2018-04-15T03:14:01.645Z,28.80
2018-04-15T03:16:29.231Z,31.17
2018-04-15T03:18:56.777Z,36.50
2018-04-15T03:21:24.449Z,32.97
2018-04-15T03:23:52.315Z,38.03
2018-04-15T03:26:20.341Z,30.13
2018-04-15T03:28:47.882Z,38.87
2018-04-15T03:31:15.959Z,39.50
2018-04-15T03:33:43.518Z,36.07
2018-04-15T03:36:11.444Z,37.13
2018-04-15T03:38:39.135Z,36.80
2018-04-15T03:41:06.940Z,33.37
2018-04-15T03:43:34.547Z,32.77
2018-04-15T03:46:02.094Z,32.73
2018-04-15T03:48:29.684Z,35.30
2018-04-15T03:50:57.237Z,31.00
2018-04-15T03:53:24.868Z,32.00
2018-04-15T03:55:52.398Z,33.67
2018-04-15T03:58:19.978Z,28.60
2018-04-15T04:00:47.517Z,29.37
2018-04-15T04:03:15.093Z,26.37
2018-04-15T04:05:42.657Z,27.07
2018-04-15T04:08:10.267Z,21.63
2018-04-15T04:10:37.826Z,22.83
2018-04-15T04:13:05.468Z,26.50
2018-04-15T04:15:33.001Z,21.03
2018-04-15T04:18:12.967Z,18.93
2018-04-15T04:20:52.518Z,19.80
2018-04-15T04:23:31.988Z,16.73
2018-04-15T04:26:04.479Z,16.90
2018-04-15T04:28:32.444Z,17.43
2018-04-15T04:31:00.024Z,16.57
2018-04-15T04:33:27.728Z,19.00
2018-04-15T04:35:55.309Z,15.67
2018-04-15T04:38:22.845Z,16.27
2018-04-15T04:40:50.415Z,17.70
2018-04-15T04:43:17.959Z,16.17
2018-04-15T04:45:45.529Z,16.00
2018-04-15T04:48:13.064Z,16.90
2018-04-15T04:50:40.684Z,17.00
2018-04-15T04:53:08.222Z,21.23
2018-04-15T04:55:35.800Z,22.17
2018-04-15T04:58:03.387Z,27.07
2018-04-15T05:00:30.975Z,22.87
2018-04-15T05:02:58.569Z,22.30
2018-04-15T05:05:26.156Z,22.60
2018-04-15T05:07:53.684Z,24.33
2018-04-15T05:10:21.261Z,20.60
2018-04-15T05:12:48.853Z,20.97
2018-04-15T05:15:16.408Z,25.03
2018-04-15T05:17:43.959Z,21.50
2018-04-15T05:20:11.569Z,19.93
2018-04-15T05:22:39.115Z,20.20
2018-04-15T05:25:06.669Z,21.47
2018-04-15T05:27:34.251Z,22.30
2018-04-15T05:30:02.601Z,19.00
2018-04-15T05:32:30.146Z,19.83
2018-04-15T05:34:58.143Z,20.07
2018-04-15T05:37:25.712Z,17.93
2018-04-15T05:39:53.607Z,19.33
2018-04-15T05:42:21.160Z,19.27
2018-04-15T05:44:49.080Z,18.63
2018-04-15T05:47:16.653Z,19.63
2018-04-15T05:49:44.198Z,19.83
2018-04-15T05:52:11.783Z,20.30
2018-04-15T05:54:39.324Z,17.17
2018-04-15T05:57:06.895Z,19.67
2018-04-15T05:59:34.522Z,16.97
2018-04-15T06:02:02.099Z,20.20
2018-04-15T06:04:29.664Z,20.87
2018-04-15T06:06:57.280Z,19.20
2018-04-15T06:09:24.849Z,21.00
2018-04-15T06:11:52.520Z,20.13
2018-04-15T06:14:20.111Z,20.87
2018-04-15T06:16:48.310Z,22.63
2018-04-15T06:19:15.828Z,27.60
2018-04-15T06:21:43.399Z,22.43
2018-04-15T06:24:10.958Z,23.33
2018-04-15T06:26:38.530Z,25.90
2018-04-15T06:29:06.073Z,22.70
2018-04-15T06:31:34.242Z,22.97
2018-04-15T06:34:01.802Z,23.17
2018-04-15T06:36:29.982Z,23.50
2018-04-15T06:38:57.522Z,29.20
2018-04-15T06:41:25.068Z,24.87
2018-04-15T06:43:52.627Z,26.40
2018-04-15T06:46:20.179Z,25.70
2018-04-15T06:48:47.774Z,24.13
2018-04-15T06:51:15.300Z,25.00
2018-04-15T06:53:42.892Z,25.87
2018-04-15T06:56:10.481Z,22.87
2018-04-15T06:58:38.047Z,24.87
2018-04-15T07:01:05.597Z,20.30
2018-04-15T07:03:33.182Z,23.00
2018-04-15T07:06:00.724Z,21.00
2018-04-15T07:08:28.306Z,23.00
2018-04-15T07:10:55.864Z,25.80
2018-04-15T07:13:23.435Z,25.47
2018-04-15T07:15:50.978Z,24.80
2018-04-15T07:18:18.544Z,25.40
2018-04-15T07:20:46.102Z,26.33
2018-04-15T07:23:13.661Z,28.30
2018-04-15T07:25:41.232Z,30.33
2018-04-15T07:28:08.822Z,23.33
2018-04-15T07:30:36.392Z,24.80
2018-04-15T07:33:03.954Z,25.63
2018-04-15T07:35:31.510Z,20.03
2018-04-15T07:37:59.070Z,21.00
2018-04-15T07:40:26.637Z,21.23
2018-04-15T07:42:54.249Z,22.20
2018-04-15T07:45:21.830Z,19.93
2018-04-15T07:47:50.026Z,17.27
2018-04-15T07:50:17.560Z,14.67
2018-04-15T07:52:45.766Z,23.03
2018-04-15T07:55:13.405Z,16.40
2018-04-15T07:57:41.604Z,14.23
2018-04-15T08:00:09.235Z,12.97
2018-04-15T08:02:36.782Z,12.67
2018-04-15T08:05:04.370Z,16.60
2018-04-15T08:07:31.909Z,11.43
2018-04-15T08:10:19.484Z,10.03
2018-04-15T08:12:47.022Z,11.80
2018-04-15T08:15:14.613Z,9.70
2018-04-15T08:17:42.177Z,10.13
2018-04-15T08:20:09.820Z,11.97
2018-04-15T08:22:37.442Z,8.83
2018-04-15T08:25:05.006Z,8.13
2018-04-15T08:27:32.593Z,8.87
2018-04-15T08:30:00.199Z,10.67
2018-04-15T08:32:27.760Z,12.27
2018-04-15T08:34:55.358Z,9.70
2018-04-15T08:37:23.023Z,10.40
2018-04-15T08:39:51.278Z,9.90
2018-04-15T08:42:18.815Z,11.37
2018-04-15T08:44:46.967Z,9.63
2018-04-15T08:47:14.518Z,8.90
2018-04-15T08:49:42.775Z,10.53
2018-04-15T08:52:10.443Z,7.70
2018-04-15T08:54:38.075Z,8.17
2018-04-15T08:57:05.657Z,8.27
2018-04-15T08:59:33.211Z,7.00
2018-04-15T09:02:01.554Z,6.30
2018-04-15T09:04:29.114Z,7.07
2018-04-15T09:06:57.098Z,7.50
2018-04-15T09:09:24.635Z,7.13
2018-04-15T09:11:52.981Z,5.50
2018-04-15T09:14:20.541Z,4.27
2018-04-15T09:16:48.131Z,4.73
2018-04-15T09:19:19.248Z,6.47
2018-04-15T09:21:46.859Z,5.57
2018-04-15T09:24:14.414Z,5.20
2018-04-15T09:26:42.912Z,5.13
2018-04-15T09:29:30.451Z,3.77
2018-04-15T09:31:58.383Z,3.30
2018-04-15T09:34:25.944Z,5.63
2018-04-15T09:36:54.543Z,4.77
2018-04-15T09:39:22.993Z,4.33
2018-04-15T09:41:50.528Z,4.23
2018-04-15T09:44:18.523Z,5.93
2018-04-15T09:46:46.109Z,3.80
2018-04-15T09:49:14.439Z,3.50
2018-04-15T09:51:54.440Z,3.77
2018-04-15T09:54:46.548Z,5.17
2018-04-15T10:10:18.296Z,5.10
2018-04-15T10:12:52.661Z,3.30
2018-04-15T10:15:37.464Z,5.73
2018-04-15T10:27:50.126Z,3.37
2018-04-15T10:30:18.664Z,6.07
2018-04-15T10:32:46.222Z,3.47
2018-04-15T10:35:14.587Z,3.00
2018-04-15T10:37:42.526Z,4.03
2018-04-15T10:40:10.190Z,2.33
2018-04-15T10:42:38.567Z,4.00
2018-04-15T10:45:06.733Z,3.00
2018-04-15T10:47:34.875Z,3.10
2018-04-15T10:50:03.301Z,2.97
2018-04-15T10:52:30.835Z,4.50
2018-04-15T10:54:58.838Z,2.73
2018-04-15T10:57:26.425Z,3.40
2018-04-15T10:59:54.605Z,3.13
2018-04-15T11:02:22.295Z,2.20
2018-04-15T11:04:49.829Z,2.73
2018-04-15T11:07:18.172Z,2.33
2018-04-15T11:09:45.814Z,3.27
2018-04-15T11:12:14.200Z,2.43
2018-04-15T11:14:41.899Z,3.53
2018-04-15T11:17:09.438Z,3.77
2018-04-15T11:19:37.104Z,3.00
2018-04-15T11:22:04.654Z,3.90
2018-04-15T11:24:32.928Z,3.60
2018-04-15T11:27:00.495Z,2.93
2018-04-15T11:29:28.472Z,3.47
2018-04-15T11:31:55.996Z,1.77
2018-04-15T11:34:24.630Z,3.67
2018-04-15T11:36:52.998Z,1.73
2018-04-15T11:39:20.544Z,4.27
2018-04-15T11:41:48.857Z,4.90
2018-04-15T11:44:16.470Z,2.17
2018-04-15T11:46:44.300Z,3.77
2018-04-15T11:49:11.950Z,3.00
2018-04-15T11:51:39.568Z,4.00
2018-04-15T11:54:07.813Z,3.30
2018-04-15T11:56:35.346Z,4.40
2018-04-15T11:59:03.759Z,2.97
2018-04-15T12:01:31.336Z,2.80
2018-04-15T12:03:59.123Z,3.83
2018-04-15T12:06:26.748Z,2.00
2018-04-15T12:08:54.493Z,2.90
2018-04-15T12:11:22.143Z,3.20
2018-04-15T12:13:49.702Z,5.20
2018-04-15T12:16:18.117Z,2.37
2018-04-15T12:18:45.676Z,3.80
2018-04-15T12:21:13.786Z,2.77
2018-04-15T12:23:41.613Z,2.77
2018-04-15T12:26:09.755Z,6.63
2018-04-15T12:28:37.305Z,3.47
2018-04-15T12:31:05.841Z,3.53
2018-04-15T12:33:33.442Z,1.73
2018-04-15T12:36:00.984Z,2.00
2018-04-15T12:38:28.512Z,2.23
2018-04-15T12:40:56.077Z,2.07
2018-04-15T12:43:24.458Z,3.47
2018-04-15T12:45:51.988Z,2.43
2018-04-15T12:48:20.049Z,1.20
2018-04-15T12:50:47.600Z,2.40
2018-04-15T12:53:15.816Z,1.87
2018-04-15T12:55:43.464Z,1.83
2018-04-15T12:58:11.036Z,3.50
2018-04-15T13:00:39.521Z,2.93
2018-04-15T13:03:07.052Z,3.20
2018-04-15T13:05:35.405Z,2.80
2018-04-15T13:08:02.987Z,2.40
2018-04-15T13:10:30.569Z,2.13
2018-04-15T13:12:58.234Z,1.63
2018-04-15T13:15:25.787Z,2.00
2018-04-15T13:17:53.390Z,1.93
2018-04-15T13:20:20.920Z,1.80
2018-04-15T13:22:48.563Z,3.57
2018-04-15T13:25:16.199Z,1.83
2018-04-15T13:27:44.321Z,1.80
2018-04-15T13:30:11.953Z,2.17
2018-04-15T13:32:40.047Z,2.83
2018-04-15T13:35:07.619Z,3.20
2018-04-15T13:37:35.764Z,1.43
2018-04-15T13:40:03.372Z,3.10
2018-04-15T13:42:44.717Z,4.17
2018-04-15T13:45:12.284Z,3.93
2018-04-15T13:47:40.555Z,2.60
2018-04-15T13:50:08.112Z,2.23
2018-04-15T13:52:35.882Z,2.17
2018-04-15T13:55:03.413Z,1.07
2018-04-15T13:57:30.934Z,4.33
2018-04-15T13:59:58.623Z,3.50
2018-04-15T14:02:26.273Z,1.00
2018-04-15T14:04:53.924Z,2.40
2018-04-15T14:07:21.459Z,1.70
2018-04-15T14:09:49.813Z,4.10
2018-04-15T14:12:17.370Z,1.77
2018-04-15T14:14:45.419Z,4.97
2018-04-15T14:17:13.021Z,3.37
2018-04-15T14:19:41.276Z,2.37
2018-04-15T14:22:08.979Z,2.53
2018-04-15T14:24:36.511Z,3.33
2018-04-15T14:27:04.118Z,2.03
2018-04-15T14:29:31.677Z,2.87
2018-04-15T14:31:59.999Z,2.67
2018-04-15T14:34:27.593Z,2.90
2018-04-15T14:36:55.722Z,4.03
2018-04-15T14:39:23.306Z,1.77
2018-04-15T14:41:51.496Z,3.63
2018-04-15T14:44:19.170Z,2.07
2018-04-15T14:46:46.716Z,2.87
2018-04-15T14:49:14.310Z,3.60
2018-04-15T14:51:42.107Z,4.20
2018-04-15T14:54:10.383Z,1.33
2018-04-15T14:56:37.954Z,4.80
2018-04-15T14:59:05.856Z,3.10
2018-04-15T15:01:38.281Z,3.63
2018-04-15T15:04:06.234Z,3.33
2018-04-15T15:06:33.886Z,4.13
2018-04-15T15:09:01.692Z,7.87
2018-04-15T15:11:29.322Z,4.20
2018-04-15T15:13:56.882Z,3.73
2018-04-15T15:16:24.507Z,3.57
2018-04-15T15:18:52.102Z,3.63
2018-04-15T15:21:20.337Z,1.80
2018-04-15T15:23:47.923Z,3.63
2018-04-15T15:26:16.053Z,3.10
2018-04-15T15:28:43.732Z,5.60
2018-04-15T15:31:11.958Z,2.67
2018-04-15T15:33:40.347Z,3.70
2018-04-15T15:36:08.304Z,3.27
2018-04-15T15:38:36.230Z,9.97
2018-04-15T15:41:03.802Z,8.60
2018-04-15T15:43:32.091Z,2.67
2018-04-15T15:46:00.374Z,2.20
2018-04-15T15:48:27.962Z,2.93
2018-04-15T15:50:56.058Z,2.37
2018-04-15T15:53:23.594Z,3.73
2018-04-15T15:55:51.523Z,4.87
2018-04-15T15:58:19.105Z,3.10
2018-04-15T16:00:47.019Z,1.93
2018-04-15T16:03:14.661Z,5.13
2018-04-15T16:05:42.204Z,3.87
2018-04-15T16:08:09.784Z,4.43
2018-04-15T16:10:37.335Z,3.87
2018-04-15T16:13:04.926Z,3.67
2018-04-15T16:15:32.471Z,8.27
2018-04-15T16:18:00.924Z,3.03
2018-04-15T16:20:28.560Z,4.70
2018-04-15T16:22:56.676Z,4.07
2018-04-15T16:25:24.316Z,5.20
2018-04-15T16:27:52.371Z,7.73
2018-04-15T16:30:19.976Z,3.50
2018-04-15T16:32:47.580Z,1.73
2018-04-15T16:35:16.052Z,3.27
2018-04-15T16:37:43.588Z,2.60
2018-04-15T16:40:11.499Z,4.07
2018-04-15T16:42:39.722Z,3.03
2018-04-15T16:45:08.109Z,3.10
2018-04-15T16:47:36.657Z,4.70
2018-04-15T16:50:04.867Z,2.67
2018-04-15T16:52:33.304Z,5.13
2018-04-15T16:55:02.133Z,2.30
2018-04-15T16:57:30.385Z,3.00
2018-04-15T16:59:58.639Z,4.40
2018-04-15T17:02:27.345Z,2.93
2018-04-15T17:04:56.307Z,7.67
2018-04-15T17:07:24.534Z,4.20
2018-04-15T17:09:53.429Z,3.90
2018-04-15T17:12:22.011Z,4.83
2018-04-15T17:14:51.207Z,6.73
2018-04-15T17:17:19.503Z,3.03
2018-04-15T17:19:47.826Z,4.77
2018-04-15T17:22:16.542Z,4.63
2018-04-15T17:24:44.744Z,3.70
2018-04-15T17:27:13.716Z,5.83
2018-04-15T17:29:42.222Z,4.23
2018-04-15T17:32:11.736Z,4.20
2018-04-15T17:34:39.870Z,3.10
2018-04-15T17:37:08.216Z,3.33
2018-04-15T17:39:36.778Z,2.70
2018-04-15T17:42:04.970Z,3.27
2018-04-15T17:44:33.248Z,5.57
2018-04-15T17:47:02.011Z,3.73
2018-04-15T17:49:30.188Z,2.27
2018-04-15T17:51:58.438Z,3.17
2018-04-15T17:54:27.115Z,4.03
2018-04-15T17:56:55.305Z,3.60
2018-04-15T17:59:23.555Z,4.13
2018-04-15T18:01:52.338Z,4.13
2018-04-15T18:04:20.554Z,6.53
2018-04-15T18:06:49.342Z,3.00
2018-04-15T18:09:18.011Z,3.83
2018-04-15T18:11:46.302Z,16.17
2018-04-15T18:14:14.519Z,9.60
2018-04-15T18:16:43.075Z,3.13
2018-04-15T18:19:11.301Z,4.50
2018-04-15T18:21:39.698Z,4.27
2018-04-15T18:24:08.479Z,3.27
2018-04-15T18:26:36.724Z,3.97
2018-04-15T18:29:04.935Z,4.07
2018-04-15T18:31:33.641Z,6.53
2018-04-15T18:34:01.856Z,7.00
2018-04-15T18:36:30.055Z,4.50
2018-04-15T18:38:58.863Z,10.33
2018-04-15T18:41:27.157Z,9.80
2018-04-15T18:43:55.335Z,4.03
2018-04-15T18:46:24.175Z,6.10
2018-04-15T18:48:52.881Z,5.27
2018-04-15T18:51:21.063Z,5.23
2018-04-15T18:53:49.263Z,4.07
2018-04-15T18:56:18.013Z,6.43
2018-04-15T18:58:46.190Z,4.83
2018-04-15T19:01:14.426Z,5.00
2018-04-15T19:03:43.187Z,4.10
2018-04-15T19:06:11.375Z,4.23
2018-04-15T19:08:40.168Z,7.60
2018-04-15T19:11:08.699Z,6.47
2018-04-15T19:13:36.911Z,6.53
2018-04-15T19:16:05.322Z,5.37
2018-04-15T19:18:33.761Z,5.97
2018-04-15T19:21:01.965Z,7.23
2018-04-15T19:23:30.258Z,5.60
2018-04-15T19:25:59.219Z,5.53
2018-04-15T19:28:27.673Z,6.70
2018-04-15T19:30:56.000Z,10.37
2018-04-15T19:33:24.700Z,5.87
2018-04-15T19:35:53.453Z,5.87
2018-04-15T19:38:21.688Z,6.33
2018-04-15T19:40:50.517Z,6.17
2018-04-15T19:43:19.093Z,7.53
2018-04-15T19:45:47.365Z,5.10
2018-04-15T19:48:15.650Z,6.60
2018-04-15T19:50:44.291Z,7.23
2018-04-15T19:53:12.570Z,7.50
2018-04-15T19:55:40.778Z,7.53
2018-04-15T19:58:09.610Z,6.13
2018-04-15T20:00:37.849Z,7.07
2018-04-15T20:03:06.021Z,6.20
2018-04-15T20:05:34.737Z,6.57
2018-04-15T20:08:03.060Z,5.70
2018-04-15T20:10:31.253Z,7.63
2018-04-15T20:12:59.862Z,4.70
2018-04-15T20:15:28.096Z,3.77
2018-04-15T20:17:56.311Z,6.90
2018-04-15T20:20:25.030Z,3.60
2018-04-15T20:22:53.254Z,4.63
2018-04-15T20:25:21.432Z,5.73
2018-04-15T20:27:50.093Z,5.40
2018-04-15T20:30:18.321Z,3.60
2018-04-15T20:32:46.526Z,6.13
2018-04-15T20:35:15.145Z,4.57
2018-04-15T20:37:43.391Z,4.00
2018-04-15T20:40:11.577Z,5.50
2018-04-15T20:42:40.211Z,4.77
2018-04-15T20:45:08.424Z,6.07
2018-04-15T20:47:36.638Z,7.33
2018-04-15T20:50:05.329Z,5.67
2018-04-15T20:52:33.574Z,5.70
2018-04-15T20:55:01.782Z,7.97
2018-04-15T20:57:30.398Z,6.20
2018-04-15T20:59:58.663Z,5.97
2018-04-15T21:02:26.860Z,6.33
2018-04-15T21:04:55.391Z,5.47
2018-04-15T21:07:23.616Z,4.20
2018-04-15T21:09:51.839Z,6.50
2018-04-15T21:12:20.583Z,6.23
2018-04-15T21:14:48.815Z,5.17
2018-04-15T21:17:17.000Z,8.63
2018-04-15T21:19:45.727Z,8.33
2018-04-15T21:22:13.923Z,11.83
2018-04-15T21:24:42.137Z,9.30
2018-04-15T21:27:10.917Z,8.13
2018-04-15T21:29:39.752Z,9.03
2018-04-15T21:32:07.947Z,10.07
2018-04-15T21:34:36.174Z,8.10
2018-04-15T21:37:04.906Z,7.97
2018-04-15T21:39:33.093Z,10.07
2018-04-15T21:42:01.310Z,8.03
2018-04-15T21:44:30.040Z,7.57
2018-04-15T21:46:58.218Z,6.80
2018-04-15T21:49:26.433Z,8.77
2018-04-15T21:51:55.116Z,9.07
2018-04-15T21:54:23.331Z,7.03
2018-04-15T21:56:51.525Z,10.17
2018-04-15T21:59:20.325Z,7.87
2018-04-15T22:01:48.510Z,6.90
2018-04-15T22:04:16.715Z,6.60
2018-04-15T22:06:45.421Z,6.30
2018-04-15T22:09:13.619Z,8.20
2018-04-15T22:11:53.696Z,6.83
2018-04-15T22:14:22.267Z,10.90
2018-04-15T22:16:50.572Z,10.27
2018-04-15T22:19:18.751Z,7.37
2018-04-15T22:21:46.951Z,6.20
2018-04-15T22:24:15.723Z,8.83
2018-04-15T22:26:43.923Z,11.03
2018-04-15T22:29:12.115Z,7.33
2018-04-15T22:31:40.737Z,9.60
2018-04-15T22:34:09.061Z,7.80
2018-04-15T22:36:37.268Z,8.23
2018-04-15T22:39:05.913Z,6.03
2018-04-15T22:41:34.100Z,7.37
2018-04-15T22:44:02.321Z,7.43
2018-04-15T22:46:30.960Z,9.17
2018-04-15T22:48:59.158Z,9.00
2018-04-15T22:51:27.344Z,7.07
2018-04-15T22:53:56.101Z,7.03
2018-04-15T22:56:24.317Z,8.10
2018-04-15T22:58:53.088Z,7.50
2018-04-15T23:01:21.707Z,7.30
2018-04-15T23:03:49.935Z,6.53
2018-04-15T23:06:18.175Z,9.67
2018-04-15T23:08:46.847Z,9.73
2018-04-15T23:11:15.045Z,8.07
2018-04-15T23:13:43.224Z,7.37
2018-04-15T23:16:11.731Z,8.23
2018-04-15T23:18:39.936Z,8.37
2018-04-15T23:21:08.407Z,9.37
2018-04-15T23:23:37.116Z,8.43
2018-04-15T23:26:05.589Z,7.50
2018-04-15T23:28:33.868Z,11.77
2018-04-15T23:31:02.554Z,7.97
2018-04-15T23:33:30.777Z,6.20
2018-04-15T23:35:58.955Z,7.20
2018-04-15T23:38:27.473Z,7.30
2018-04-15T23:40:55.699Z,12.53
2018-04-15T23:43:23.901Z,6.83
2018-04-15T23:45:53.112Z,6.60
2018-04-15T23:48:21.739Z,5.97
2018-04-15T23:50:49.953Z,8.07
2018-04-15T23:53:18.155Z,7.73
2018-04-15T23:55:46.785Z,7.03
2018-04-15T23:58:15.428Z,9.57
